Rosebud, Texas
Current Conditions -  °F | °C
As of 5:15 PM on Wednesday 26 Nov 2014 (Local Time) from KT35 Reporting Station
Clear Clear  
Wind Chill: 18°   Ceiling: Unl
Heat Index: 18°   Visibility: 10mi
Dew Point:   Wind: 6mph
Humidity: 34%   Direction: 360°N
Pressure: 30.21"   Gusts: NA
Location:  31.07°N, 96.98°W
Report Text: KT35 262315Z AUTO 36005KT 10SM CLR 18/02 A3021 RMK AO2 T01750016
Loading
Personal Weather Stations






























Interactive Weather Map New forecast layout! Learn more

10-Day Weather Forecast

Advertisements
Track Severe Weather on mobile